Berazategui, Argentina
Current Conditions -  °F | °C
As of 11:00 AM on Thursday 29 Jan 2015 (Local Time) from SABE Reporting Station
Clear Clear  
Wind Chill: 70°   Ceiling: Unl
Heat Index: 70°   Visibility: 6mi
Dew Point: 52°   Wind: 15mph
Humidity: 53%   Direction: 160°SSE
Pressure: 30.12"   Gusts: NA
Location:  34.77°S, 58.22°W
Report Text: SABE 291400Z 16013KT CAVOK 21/11 Q1020
Loading
Personal Weather Stations






























Interactive Weather Map New forecast layout! Learn more

10-Day Weather Forecast

Advertisements
Track Severe Weather on mobile